Time;durP1;ratioP1;P1;durP2;ratioP2;P2;SDS_P1;SDS_P2;PMS_P1;PMS_P2;Temp;Humidity;BMP_temperature;BMP_pressure;BME280_temperature;BME280_humidity;BME280_pressure;Samples;Min_cycle;Max_cycle;Signal;HPM_P1;HPM_P2
2023/04/03 05:21:52;;;;;;;;;;;;;;;9.61;68.66;96999.31;4246951;27;10424;-76
2023/04/03 05:23:55;;;;;;;;;;;;;;;9.90;67.86;97009.03;4231442;28;5625;-77
2023/04/03 05:25:58;;;;;;;;;;;;;;;10.10;67.81;97001.38;4232019;28;5644;-77
2023/04/03 05:28:01;;;;;;;;;;;;;;;10.23;66.82;97013.97;4231460;28;5617;-77
2023/04/03 05:30:05;;;;;;;;;;;;;;;10.29;66.96;97003.44;4231210;28;5613;-77
2023/04/03 05:32:07;;;;;;;;;;;;;;;10.37;66.90;97000.69;4231983;28;5843;-77
2023/04/03 05:34:11;;;;;;;;;;;;;;;10.46;66.01;97004.88;4224986;28;5616;-77
2023/04/03 05:36:14;;;;;;;;;;;;;;;10.46;66.23;96999.59;4222529;28;5612;-77
2023/04/03 05:38:18;;;;;;;;;;;;;;;10.56;65.69;96994.00;4232033;28;5769;-77
2023/04/03 05:40:21;;;;;;;;;;;;;;;10.61;65.86;96996.88;4231537;28;5617;-77
2023/04/03 05:42:24;;;;;;;;;;;;;;;10.63;65.08;96994.03;4214678;28;5643;-77
2023/04/03 05:44:27;;;;;;;;;;;;;;;10.59;65.27;97006.00;4228090;28;5748;-77
2023/04/03 05:46:30;;;;;;;;;;;;;;;10.55;64.65;97002.13;4230743;28;5759;-77
2023/04/03 05:48:33;;;;;;;;;;;;;;;10.50;64.90;96997.38;4224786;28;5718;-76
2023/04/03 05:50:41;;;;;;;;;;;;;;;10.49;64.67;97004.50;4228138;28;5621;-77
2023/04/03 05:52:47;;;;;;;;;;;;;;;10.48;64.29;96992.28;4224886;28;5636;-77
2023/04/03 05:54:52;;;;;;;;;;;;;;;10.45;64.06;97008.53;4224912;28;5695;-77
2023/04/03 05:56:55;;;;;;;;;;;;;;;10.48;64.33;97012.63;4229937;28;5692;-77
2023/04/03 05:58:58;;;;;;;;;;;;;;;10.48;64.12;97004.69;4231636;28;5721;-77
2023/04/03 06:01:01;;;;;;;;;;;;;;;10.45;63.89;97003.25;4231619;28;5624;-77
2023/04/03 06:03:06;;;;;;;;;;;;;;;10.45;63.72;97008.53;4231543;28;5624;-76
2023/04/03 06:05:11;;;;;;;;;;;;;;;10.38;63.83;97012.09;4231765;28;5612;-77
2023/04/03 06:07:16;;;;;;;;;;;;;;;10.39;63.92;97011.91;4231725;28;5688;-77
2023/04/03 06:09:20;;;;;;;;;;;;;;;10.46;63.82;97017.28;4231490;28;5617;-77
2023/04/03 06:11:24;;;;;;;;;;;;;;;10.47;63.40;97011.78;4230643;28;5747;-76
2023/04/03 06:13:28;;;;;;;;;;;;;;;10.49;63.45;97016.88;4231652;28;5617;-77
2023/04/03 06:15:31;;;;;;;;;;;;;;;10.50;63.43;97011.41;4231495;28;5593;-77
2023/04/03 06:17:34;;;;;;;;;;;;;;;10.47;63.38;97014.44;4213201;28;5640;-77
2023/04/03 06:19:38;;;;;;;;;;;;;;;10.49;62.94;97004.50;4231259;28;5684;-77
2023/04/03 06:21:41;;;;;;;;;;;;;;;10.49;62.92;96996.56;4226023;28;5629;-77
2023/04/03 06:23:43;;;;;;;;;;;;;;;10.51;62.96;97006.94;4219972;28;5608;-77
2023/04/03 06:25:46;;;;;;;;;;;;;;;10.46;62.62;97004.06;4219909;28;6417;-77
2023/04/03 06:27:51;;;;;;;;;;;;;;;10.44;62.77;97006.06;4219503;28;5624;-77
2023/04/03 06:29:54;;;;;;;;;;;;;;;10.48;62.60;97010.78;4220020;28;6286;-77
2023/04/03 06:31:57;;;;;;;;;;;;;;;10.50;62.73;97005.31;4219586;28;5804;-77
2023/04/03 06:34:00;;;;;;;;;;;;;;;10.50;62.53;97000.03;4202015;28;5631;-77
2023/04/03 06:36:06;;;;;;;;;;;;;;;10.48;62.49;97007.31;4219938;28;5629;-77
2023/04/03 06:38:09;;;;;;;;;;;;;;;10.46;62.21;97010.16;4219785;28;5616;-77
2023/04/03 06:40:18;;;;;;;;;;;;;;;10.45;62.08;97023.56;4219581;28;5680;-77
2023/04/03 06:42:21;;;;;;;;;;;;;;;10.46;62.41;97017.28;4218713;28;5636;-77
2023/04/03 06:44:25;;;;;;;;;;;;;;;10.48;62.30;97021.34;4219971;28;5617;-77
2023/04/03 06:46:28;;;;;;;;;;;;;;;10.53;62.11;97027.91;4219517;28;5608;-77
2023/04/03 06:48:32;;;;;;;;;;;;;;;10.57;61.78;97023.91;4219629;28;6263;-77
2023/04/03 06:50:35;;;;;;;;;;;;;;;10.62;61.91;97018.84;4219415;28;5612;-77
2023/04/03 06:52:39;;;;;;;;;;;;;;;10.58;61.66;97020.25;4219536;28;5775;-78
2023/04/03 06:54:42;;;;;;;;;;;;;;;10.52;61.56;97023.63;4219502;28;5616;-77
2023/04/03 06:56:45;;;;;;;;;;;;;;;10.48;61.64;97024.00;4219104;28;6310;-78
2023/04/03 06:58:48;;;;;;;;;;;;;;;10.43;61.52;97021.13;4219448;28;5601;-78
2023/04/03 07:00:53;;;;;;;;;;;;;;;10.38;61.43;97022.66;4219487;28;5708;-77
2023/04/03 07:02:57;;;;;;;;;;;;;;;10.35;61.30;97021.22;4219506;28;5640;-77
2023/04/03 07:05:00;;;;;;;;;;;;;;;10.33;61.48;97020.59;4219393;28;5645;-76
2023/04/03 07:07:04;;;;;;;;;;;;;;;10.30;61.06;97020.94;4219144;28;5699;-77
2023/04/03 07:09:07;;;;;;;;;;;;;;;10.35;61.13;97023.03;4219360;28;5891;-76
2023/04/03 07:11:11;;;;;;;;;;;;;;;10.39;61.08;97025.13;4200425;28;5714;-76
2023/04/03 07:13:14;;;;;;;;;;;;;;;10.38;60.79;97023.47;4201579;28;5807;-76
2023/04/03 07:15:17;;;;;;;;;;;;;;;10.37;60.90;97016.56;4221425;28;5658;-75
2023/04/03 07:17:21;;;;;;;;;;;;;;;10.38;60.89;97035.88;4221223;28;5604;-75
2023/04/03 07:19:27;;;;;;;;;;;;;;;10.36;60.84;97025.50;4221129;28;5613;-75
2023/04/03 07:21:31;;;;;;;;;;;;;;;10.32;60.39;97034.00;4221011;28;5794;-75
2023/04/03 07:23:34;;;;;;;;;;;;;;;10.31;60.39;97027.88;4219331;28;5684;-77
2023/04/03 07:25:44;;;;;;;;;;;;;;;10.28;60.69;97028.22;4219280;28;5617;-76
2023/04/03 07:27:48;;;;;;;;;;;;;;;10.25;60.38;97033.09;4218809;28;5636;-76
2023/04/03 07:29:52;;;;;;;;;;;;;;;10.25;60.43;97033.91;4219112;28;5604;-76
2023/04/03 07:31:58;;;;;;;;;;;;;;;10.26;60.27;97040.81;4218602;28;5732;-77
2023/04/03 07:34:04;;;;;;;;;;;;;;;10.27;60.51;97049.56;4217889;28;5669;-76
2023/04/03 07:36:09;;;;;;;;;;;;;;;10.29;60.40;97036.97;4218699;28;5668;-76
2023/04/03 07:38:13;;;;;;;;;;;;;;;10.24;60.42;97042.84;4218224;28;5693;-76
2023/04/03 07:40:16;;;;;;;;;;;;;;;10.28;59.98;97038.00;4218348;28;6493;-76
2023/04/03 07:42:21;;;;;;;;;;;;;;;10.28;59.93;97038.00;4218446;28;6717;-76
2023/04/03 07:44:25;;;;;;;;;;;;;;;10.25;60.16;97039.19;4218412;28;5661;-77
2023/04/03 07:46:28;;;;;;;;;;;;;;;10.25;59.98;97044.47;4218648;28;5661;-77
2023/04/03 07:48:34;;;;;;;;;;;;;;;10.21;59.88;97048.47;4218532;28;5825;-77
2023/04/03 07:50:41;;;;;;;;;;;;;;;10.18;59.99;97069.94;4218422;28;5649;-77
2023/04/03 07:52:44;;;;;;;;;;;;;;;10.13;59.83;97056.47;4200287;28;5066;-76
2023/04/03 07:54:47;;;;;;;;;;;;;;;10.10;59.64;97064.78;4218510;28;5708;-77
2023/04/03 07:56:49;;;;;;;;;;;;;;;10.06;59.81;97066.94;4218152;28;5100;-77
2023/04/03 07:58:53;;;;;;;;;;;;;;;10.05;59.79;97062.66;4218213;28;7679;-76
2023/04/03 08:00:56;;;;;;;;;;;;;;;10.06;59.62;97066.13;4218412;28;5842;-77
2023/04/03 08:02:59;;;;;;;;;;;;;;;10.07;59.77;97065.13;4218117;28;5672;-76
2023/04/03 08:05:02;;;;;;;;;;;;;;;10.07;59.28;97067.75;4218378;28;6509;-76
2023/04/03 08:07:06;;;;;;;;;;;;;;;9.99;59.14;97055.50;4218256;28;5217;-78
2023/04/03 08:09:10;;;;;;;;;;;;;;;9.96;59.77;97060.28;4218125;28;5609;-76
2023/04/03 08:11:13;;;;;;;;;;;;;;;9.95;59.71;97075.31;4217122;28;5613;-75
2023/04/03 08:13:16;;;;;;;;;;;;;;;10.04;59.77;97062.84;4200081;28;5734;-76
2023/04/03 08:15:20;;;;;;;;;;;;;;;10.04;59.41;97074.25;4200126;28;5635;-76
2023/04/03 08:17:24;;;;;;;;;;;;;;;10.01;59.38;97076.44;4218001;28;5636;-77
2023/04/03 08:19:28;;;;;;;;;;;;;;;10.04;59.42;97065.50;4217933;28;5612;-76
2023/04/03 08:21:31;;;;;;;;;;;;;;;10.02;59.49;97075.44;4217748;28;5605;-76
2023/04/03 08:23:36;;;;;;;;;;;;;;;10.04;59.28;97094.56;4217938;28;6401;-76
2023/04/03 08:25:39;;;;;;;;;;;;;;;10.02;59.27;97081.53;4217961;28;5675;-77
2023/04/03 08:27:42;;;;;;;;;;;;;;;10.14;59.35;97084.53;4217793;28;5641;-77
2023/04/03 08:29:45;;;;;;;;;;;;;;;10.22;59.45;97086.31;4217842;28;5601;-76
2023/04/03 08:31:49;;;;;;;;;;;;;;;10.24;59.32;97095.69;4217837;28;5802;-77
2023/04/03 08:33:54;;;;;;;;;;;;;;;10.26;59.32;97092.84;4218014;28;5620;-77
2023/04/03 08:35:58;;;;;;;;;;;;;;;10.24;58.68;97095.69;4217888;28;5695;-76
2023/04/03 08:38:01;;;;;;;;;;;;;;;10.23;59.08;97094.03;4217904;28;5625;-76
2023/04/03 08:40:16;;;;;;;;;;;;;;;10.28;59.17;97086.38;4217919;28;5609;-77
2023/04/03 08:42:35;;;;;;;;;;;;;;;10.37;58.99;97111.69;4217232;28;5628;-77
2023/04/03 08:44:47;;;;;;;;;;;;;;;10.48;58.55;97113.88;4217507;28;5715;-77
2023/04/03 08:47:01;;;;;;;;;;;;;;;10.44;58.60;97109.97;4217553;28;5616;-76
2023/04/03 08:49:08;;;;;;;;;;;;;;;10.43;58.77;97115.44;4217580;28;5605;-76
2023/04/03 08:51:16;;;;;;;;;;;;;;;10.42;58.80;97111.97;4217365;28;5798;-77
2023/04/03 08:53:22;;;;;;;;;;;;;;;10.39;58.08;97104.41;4217589;28;5593;-77
2023/04/03 08:55:28;;;;;;;;;;;;;;;10.28;58.53;97109.34;4217514;28;5724;-76
2023/04/03 08:57:34;;;;;;;;;;;;;;;10.31;58.76;97123.03;4217312;28;5759;-77
2023/04/03 08:59:40;;;;;;;;;;;;;;;10.47;58.52;97140.50;4217963;28;5616;-76
2023/04/03 09:01:44;;;;;;;;;;;;;;;10.49;58.13;97109.41;4217923;28;5617;-76
2023/04/03 09:03:49;;;;;;;;;;;;;;;10.44;58.14;97131.13;4217651;28;5728;-77
2023/04/03 09:05:56;;;;;;;;;;;;;;;10.40;58.16;97111.31;4217462;28;5262;-77
2023/04/03 09:08:08;;;;;;;;;;;;;;;10.43;57.89;97110.97;4217400;28;7675;-76
2023/04/03 09:10:14;;;;;;;;;;;;;;;10.43;58.08;97116.25;4217680;28;5624;-76
2023/04/03 09:12:25;;;;;;;;;;;;;;;10.46;58.18;97123.81;4217244;28;5613;-77
2023/04/03 09:14:37;;;;;;;;;;;;;;;10.50;57.86;97133.00;4217800;28;5676;-76
2023/04/03 09:16:48;;;;;;;;;;;;;;;10.45;57.91;97130.09;4217625;28;5687;-77
2023/04/03 09:18:58;;;;;;;;;;;;;;;10.42;57.92;97119.91;4217516;28;5744;-77
2023/04/03 09:21:08;;;;;;;;;;;;;;;10.35;57.60;97112.88;4217373;28;5872;-77
2023/04/03 09:23:25;;;;;;;;;;;;;;;10.38;57.75;97121.25;4217145;28;5613;-77
2023/04/03 09:25:34;;;;;;;;;;;;;;;10.39;57.63;97103.59;4217486;28;5703;-77
2023/04/03 09:27:38;;;;;;;;;;;;;;;10.44;57.53;97119.72;4216869;28;5813;-77
2023/04/03 09:29:45;;;;;;;;;;;;;;;10.48;57.61;97098.00;4217153;28;5779;-76
2023/04/03 09:31:50;;;;;;;;;;;;;;;10.57;57.62;97111.13;4216802;28;5779;-76
2023/04/03 09:34:00;;;;;;;;;;;;;;;10.55;57.17;97105.22;4208480;28;5657;-77
2023/04/03 09:36:03;;;;;;;;;;;;;;;10.53;56.93;97109.84;4217198;28;5689;-77
2023/04/03 09:38:18;;;;;;;;;;;;;;;10.56;57.28;97083.06;4217062;28;6338;-76
2023/04/03 09:40:42;;;;;;;;;;;;;;;10.56;57.16;97094.44;4216508;28;5605;-77
2023/04/03 09:42:48;;;;;;;;;;;;;;;10.57;56.82;97084.69;4211077;28;5665;-76
2023/04/03 09:45:02;;;;;;;;;;;;;;;10.53;56.79;97080.75;4216958;28;5808;-76
2023/04/03 09:47:20;;;;;;;;;;;;;;;10.56;56.78;97075.94;4216903;28;5716;-77
2023/04/03 09:49:23;;;;;;;;;;;;;;;10.49;56.60;97065.28;4216736;28;6362;-76
2023/04/03 09:51:28;;;;;;;;;;;;;;;10.46;56.36;97076.25;4216852;28;5680;-76
2023/04/03 09:53:36;;;;;;;;;;;;;;;10.48;56.40;97061.00;4216833;28;6302;-77
2023/04/03 09:55:44;;;;;;;;;;;;;;;10.54;56.17;97066.56;4216902;28;6435;-76
2023/04/03 09:57:50;;;;;;;;;;;;;;;10.52;55.99;97055.34;4218454;28;5684;-77
2023/04/03 10:00:00;;;;;;;;;;;;;;;10.55;56.05;97063.75;4220344;28;5625;-76
2023/04/03 10:02:13;;;;;;;;;;;;;;;10.61;55.77;97072.72;4220175;28;5731;-77
2023/04/03 10:04:18;;;;;;;;;;;;;;;10.61;55.73;97051.59;4220134;28;5604;-76
2023/04/03 10:06:25;;;;;;;;;;;;;;;10.68;55.59;97058.59;4219959;28;5629;-76
2023/04/03 10:08:30;;;;;;;;;;;;;;;10.69;55.26;97068.16;4219794;28;5930;-77
2023/04/03 10:10:33;;;;;;;;;;;;;;;10.66;55.19;97041.28;4219693;28;6306;-77
2023/04/03 10:12:36;;;;;;;;;;;;;;;10.60;54.94;97068.44;4219636;28;5619;-77
2023/04/03 10:14:56;;;;;;;;;;;;;;;10.63;54.93;97065.44;4220114;28;6412;-77
2023/04/03 10:17:09;;;;;;;;;;;;;;;10.68;55.15;97055.94;4220003;28;5720;-76
2023/04/03 10:19:36;;;;;;;;;;;;;;;10.80;54.65;97045.69;4220143;28;6302;-76
2023/04/03 10:21:45;;;;;;;;;;;;;;;10.85;54.24;97053.88;4219556;28;5715;-77
2023/04/03 10:23:55;;;;;;;;;;;;;;;10.91;54.77;97055.78;4219785;28;5613;-77
2023/04/03 10:26:10;;;;;;;;;;;;;;;11.00;54.27;97062.59;4220075;28;5091;-77
2023/04/03 10:28:21;;;;;;;;;;;;;;;11.03;54.33;97056.09;4219559;28;8432;-77
2023/04/03 10:30:39;;;;;;;;;;;;;;;11.08;54.31;97067.72;4219920;28;5625;-77
2023/04/03 10:32:59;;;;;;;;;;;;;;;11.11;54.19;97057.78;4219680;28;5624;-77
2023/04/03 10:35:09;;;;;;;;;;;;;;;11.17;54.27;97049.09;4219895;28;5884;-77
2023/04/03 10:37:21;;;;;;;;;;;;;;;11.18;53.91;97056.00;4219693;28;5676;-77
2023/04/03 10:39:31;;;;;;;;;;;;;;;11.20;53.58;97054.00;4219787;28;6322;-76
2023/04/03 10:41:51;;;;;;;;;;;;;;;11.22;53.51;97050.16;4219209;28;5620;-76
2023/04/03 10:44:16;;;;;;;;;;;;;;;11.29;53.31;97053.66;4219458;28;5681;-77
2023/04/03 10:46:27;;;;;;;;;;;;;;;11.29;53.16;97060.78;4219649;28;5735;-76
2023/04/03 10:48:45;;;;;;;;;;;;;;;11.23;53.04;97057.09;4219276;28;5742;-77
2023/04/03 10:50:58;;;;;;;;;;;;;;;11.24;52.51;97050.78;4219457;28;5625;-76
2023/04/03 10:53:08;;;;;;;;;;;;;;;11.21;52.52;97055.63;4201591;28;6379;-76
2023/04/03 10:55:35;;;;;;;;;;;;;;;11.23;52.46;97053.63;4219624;28;5715;-76
2023/04/03 10:57:39;;;;;;;;;;;;;;;11.25;52.45;97051.59;4219242;28;5703;-76
2023/04/03 10:59:48;;;;;;;;;;;;;;;11.22;52.62;97067.88;4219218;28;5085;-76
2023/04/03 11:01:56;;;;;;;;;;;;;;;11.21;52.59;97066.22;4219679;28;6291;-76
2023/04/03 11:04:02;;;;;;;;;;;;;;;11.19;52.31;97068.22;4219417;28;5691;-77
2023/04/03 11:06:09;;;;;;;;;;;;;;;11.17;52.23;97046.44;4219464;28;5601;-77
2023/04/03 11:08:22;;;;;;;;;;;;;;;11.17;52.18;97059.66;4219266;28;5621;-78
2023/04/03 11:10:36;;;;;;;;;;;;;;;11.15;51.73;97053.75;4218883;28;5609;-77
2023/04/03 11:12:43;;;;;;;;;;;;;;;11.18;51.83;97045.44;4219228;28;5092;-77
2023/04/03 11:14:51;;;;;;;;;;;;;;;11.26;51.75;97042.66;4219301;28;5625;-77
2023/04/03 11:17:06;;;;;;;;;;;;;;;11.23;51.62;97041.22;4219006;28;5633;-78
2023/04/03 11:19:21;;;;;;;;;;;;;;;11.32;51.58;97047.16;4219174;28;5704;-77
2023/04/03 11:21:30;;;;;;;;;;;;;;;11.37;51.23;97047.44;4218776;28;5732;-78
2023/04/03 11:23:36;;;;;;;;;;;;;;;11.38;51.09;97046.41;4217763;28;5613;-78
2023/04/03 11:25:55;;;;;;;;;;;;;;;11.29;51.05;97036.97;4218748;28;5893;-77
2023/04/03 11:28:01;;;;;;;;;;;;;;;11.20;50.77;97038.09;4218506;28;5764;-77
2023/04/03 11:30:17;;;;;;;;;;;;;;;11.23;50.60;97037.75;4218926;28;5677;-77
2023/04/03 11:32:43;;;;;;;;;;;;;;;11.25;50.51;97035.72;4218854;28;5823;-78
2023/04/03 11:34:53;;;;;;;;;;;;;;;11.23;50.65;97027.16;4218659;28;5673;-77
2023/04/03 11:37:00;;;;;;;;;;;;;;;11.33;50.32;97022.38;4218885;28;5809;-77
2023/04/03 11:39:17;;;;;;;;;;;;;;;11.43;50.45;97028.13;4218869;28;5744;-77
2023/04/03 11:41:26;;;;;;;;;;;;;;;11.51;50.53;97016.56;4218593;28;5700;-77
2023/04/03 11:43:31;;;;;;;;;;;;;;;11.51;49.76;97025.31;4216278;28;5778;-77
2023/04/03 11:45:39;;;;;;;;;;;;;;;11.45;49.69;97026.13;4213677;28;5804;-76
2023/04/03 11:47:49;;;;;;;;;;;;;;;11.40;49.66;97049.69;4217641;28;5089;-77
2023/04/03 11:49:56;;;;;;;;;;;;;;;11.33;50.01;97022.38;4215141;28;7776;-76
2023/04/03 11:51:58;;;;;;;;;;;;;;;11.32;49.78;97018.06;4215042;28;5700;-74
2023/04/03 11:54:37;;;;;;;;;;;;;;;11.35;50.03;97030.91;4217914;28;5675;-74
2023/04/03 11:56:47;;;;;;;;;;;;;;;11.35;49.47;97005.28;4217200;28;5840;-75
2023/04/03 11:59:22;;;;;;;;;;;;;;;11.34;49.18;97019.53;4211647;28;5665;-74
2023/04/03 12:01:51;;;;;;;;;;;;;;;11.41;49.19;97006.31;4213941;28;5732;-75
2023/04/03 12:04:07;;;;;;;;;;;;;;;11.48;49.18;97017.78;4189292;28;5640;-76
2023/04/03 12:06:56;;;;;;;;;;;;;;;11.44;49.12;97024.47;4210288;28;5620;-75
2023/04/03 12:08:59;;;;;;;;;;;;;;;11.39;48.89;97018.94;4212902;28;5726;-74
2023/04/03 12:11:16;;;;;;;;;;;;;;;11.40;49.03;97009.97;4213981;28;5613;-75
2023/04/03 12:13:19;;;;;;;;;;;;;;;11.47;48.85;97013.50;4216322;28;5632;-75
2023/04/03 12:15:51;;;;;;;;;;;;;;;11.53;48.78;97015.34;4213457;28;5132;-75
2023/04/03 12:17:54;;;;;;;;;;;;;;;11.62;48.69;97024.78;4212982;28;7728;-75
2023/04/03 12:19:58;;;;;;;;;;;;;;;11.60;48.52;97034.75;4213479;28;5707;-73
2023/04/03 12:22:19;;;;;;;;;;;;;;;11.54;47.97;97026.75;4215462;28;5617;-75
2023/04/03 12:24:26;;;;;;;;;;;;;;;11.38;47.89;97022.59;4214991;28;5616;-74
2023/04/03 12:26:35;;;;;;;;;;;;;;;11.38;48.24;97015.47;4215691;28;5668;-74
2023/04/03 12:28:52;;;;;;;;;;;;;;;11.52;48.18;97018.19;4215732;28;5818;-75
2023/04/03 12:30:55;;;;;;;;;;;;;;;11.60;48.11;97023.34;4215770;28;5915;-75
2023/04/03 12:33:28;;;;;;;;;;;;;;;11.65;47.67;97044.75;4216050;28;5707;-75
2023/04/03 12:35:43;;;;;;;;;;;;;;;11.58;47.86;97026.19;4216077;28;5613;-74
2023/04/03 12:38:11;;;;;;;;;;;;;;;11.54;47.24;97026.75;4216075;28;5628;-75
2023/04/03 12:40:26;;;;;;;;;;;;;;;11.49;47.31;97022.06;4215817;28;5597;-75
2023/04/03 12:43:11;;;;;;;;;;;;;;;11.53;47.55;97023.31;4211391;28;5613;-75
2023/04/03 12:45:20;;;;;;;;;;;;;;;11.55;47.15;97004.56;4194376;28;5706;-75
2023/04/03 12:47:28;;;;;;;;;;;;;;;11.59;47.64;97009.31;4212991;28;5676;-75
2023/04/03 12:49:41;;;;;;;;;;;;;;;11.70;47.25;97017.72;4211511;28;5683;-75
2023/04/03 12:51:48;;;;;;;;;;;;;;;11.73;47.21;97014.66;4216775;28;5612;-75
2023/04/03 12:53:53;;;;;;;;;;;;;;;11.76;47.16;97001.84;4217169;28;5636;-76
2023/04/03 12:55:58;;;;;;;;;;;;;;;11.89;47.22;97017.88;4210745;28;5608;-75
2023/04/03 12:58:16;;;;;;;;;;;;;;;11.90;46.97;97016.03;4207163;28;5605;-75
2023/04/03 13:00:39;;;;;;;;;;;;;;;11.95;47.10;97010.97;4215657;28;5621;-75
2023/04/03 13:02:46;;;;;;;;;;;;;;;12.02;47.10;97000.41;4214979;28;6306;-75
2023/04/03 13:04:50;;;;;;;;;;;;;;;11.98;46.83;96997.31;4215858;28;5613;-75
2023/04/03 13:06:54;;;;;;;;;;;;;;;11.95;46.48;97008.31;4213595;28;6445;-75
2023/04/03 13:09:00;;;;;;;;;;;;;;;11.95;46.70;97013.59;4209564;28;5706;-75
2023/04/03 13:11:06;;;;;;;;;;;;;;;11.92;47.06;96995.47;4214290;28;5641;-76
2023/04/03 13:13:11;;;;;;;;;;;;;;;11.92;46.78;96996.28;4213210;28;5625;-76
2023/04/03 13:15:19;;;;;;;;;;;;;;;11.88;46.60;96994.19;4214716;28;5864;-75
2023/04/03 13:17:23;;;;;;;;;;;;;;;11.85;46.79;96989.31;4217026;28;5749;-75
2023/04/03 13:19:27;;;;;;;;;;;;;;;11.84;46.31;96998.25;4216233;28;5621;-76
2023/04/03 13:21:35;;;;;;;;;;;;;;;11.78;46.25;97001.66;4216982;28;5609;-76
2023/04/03 13:23:45;;;;;;;;;;;;;;;11.70;46.37;97001.84;4215507;28;5790;-77
2023/04/03 13:25:49;;;;;;;;;;;;;;;11.70;46.42;96996.53;4217511;28;5731;-76
2023/04/03 13:27:52;;;;;;;;;;;;;;;11.73;46.57;96990.84;4211201;28;5862;-75
2023/04/03 13:30:29;;;;;;;;;;;;;;;11.78;46.07;97006.94;4214961;28;5700;-75
2023/04/03 13:32:33;;;;;;;;;;;;;;;11.73;45.65;96983.72;4213801;28;5714;-75
2023/04/03 13:34:37;;;;;;;;;;;;;;;11.62;45.82;96998.31;4217342;28;5620;-74
2023/04/03 13:36:45;;;;;;;;;;;;;;;11.61;46.10;96985.28;4219118;28;5616;-74
2023/04/03 13:38:59;;;;;;;;;;;;;;;11.66;46.05;96990.78;4218333;28;5636;-75
2023/04/03 13:41:05;;;;;;;;;;;;;;;11.67;45.77;97005.69;4216022;28;5635;-75
2023/04/03 13:43:20;;;;;;;;;;;;;;;11.65;46.04;96995.25;4219607;28;5703;-74
2023/04/03 13:45:27;;;;;;;;;;;;;;;11.71;45.96;96987.56;4216576;28;5828;-75
2023/04/03 13:47:39;;;;;;;;;;;;;;;11.80;45.68;97018.22;4217335;28;5720;-75
2023/04/03 13:49:45;;;;;;;;;;;;;;;11.71;45.29;96992.88;4218892;28;5617;-74
2023/04/03 13:51:49;;;;;;;;;;;;;;;11.62;45.54;97008.91;4215540;28;5632;-75
2023/04/03 13:54:20;;;;;;;;;;;;;;;11.49;45.41;96992.94;4212608;28;5827;-75
2023/04/03 13:56:30;;;;;;;;;;;;;;;11.52;45.77;96978.50;4216467;28;5704;-75
2023/04/03 13:58:35;;;;;;;;;;;;;;;11.61;45.66;96983.44;4217026;28;5778;-74
2023/04/03 14:00:47;;;;;;;;;;;;;;;11.50;45.65;96976.03;4219339;28;5775;-75
2023/04/03 14:02:50;;;;;;;;;;;;;;;11.46;45.87;96976.63;4217916;28;5621;-75
2023/04/03 14:05:08;;;;;;;;;;;;;;;11.54;45.82;96977.28;4214917;28;5624;-75
2023/04/03 14:07:11;;;;;;;;;;;;;;;11.68;45.78;96983.50;4215254;28;6407;-75
2023/04/03 14:09:16;;;;;;;;;;;;;;;11.74;45.56;96990.63;4212271;28;5605;-75
2023/04/03 14:11:23;;;;;;;;;;;;;;;11.65;45.72;96979.38;4214701;28;5664;-74
2023/04/03 14:13:26;;;;;;;;;;;;;;;11.66;45.43;96983.69;4215958;28;5820;-75
2023/04/03 14:15:32;;;;;;;;;;;;;;;11.70;45.84;96985.94;4218641;28;5712;-75
2023/04/03 14:17:35;;;;;;;;;;;;;;;11.70;45.86;96970.06;4216528;28;5731;-75
2023/04/03 14:19:38;;;;;;;;;;;;;;;11.64;45.21;96980.41;4215918;28;5715;-74
2023/04/03 14:21:41;;;;;;;;;;;;;;;11.56;45.60;96987.69;4218678;28;5661;-75
2023/04/03 14:23:45;;;;;;;;;;;;;;;11.46;45.11;96977.44;4218117;28;7269;-75
2023/04/03 14:25:49;;;;;;;;;;;;;;;11.35;45.64;96978.81;4219397;28;5853;-75
2023/04/03 14:27:54;;;;;;;;;;;;;;;11.34;45.78;96971.06;4219211;28;5699;-75
2023/04/03 14:29:59;;;;;;;;;;;;;;;11.37;45.48;96978.59;4219407;28;5751;-75
2023/04/03 14:32:02;;;;;;;;;;;;;;;11.38;45.51;96957.22;4212710;28;5719;-76
2023/04/03 14:34:17;;;;;;;;;;;;;;;11.44;45.67;96970.69;4215088;28;5827;-75
2023/04/03 14:36:24;;;;;;;;;;;;;;;11.53;45.45;96961.59;4217851;28;5692;-75
2023/04/03 14:38:30;;;;;;;;;;;;;;;11.64;45.43;96975.09;4219347;28;5751;-75
2023/04/03 14:40:33;;;;;;;;;;;;;;;11.63;45.48;96960.22;4217231;28;5806;-75
2023/04/03 14:42:39;;;;;;;;;;;;;;;11.70;45.37;96996.53;4218460;28;5645;-76
2023/04/03 14:44:42;;;;;;;;;;;;;;;11.71;45.02;96939.91;4216254;28;5683;-76
2023/04/03 14:46:46;;;;;;;;;;;;;;;11.56;44.69;96959.38;4208934;28;5613;-72
2023/04/03 14:48:58;;;;;;;;;;;;;;;11.41;44.92;96949.91;4214738;28;5711;-72
2023/04/03 14:51:01;;;;;;;;;;;;;;;11.28;44.86;96945.34;4215679;28;5616;-73
2023/04/03 14:53:08;;;;;;;;;;;;;;;11.28;45.18;96955.94;4209559;28;5647;-73
2023/04/03 14:55:18;;;;;;;;;;;;;;;11.21;44.89;96947.13;4215456;28;5763;-73
2023/04/03 14:57:24;;;;;;;;;;;;;;;11.24;45.33;96944.94;4215769;28;5817;-73
2023/04/03 14:59:29;;;;;;;;;;;;;;;11.26;45.06;96942.09;4213111;28;5684;-73
2023/04/03 15:01:32;;;;;;;;;;;;;;;11.22;44.90;96954.91;4216894;28;5814;-73
2023/04/03 15:03:35;;;;;;;;;;;;;;;11.12;44.96;96941.19;4217425;28;5644;-73
2023/04/03 15:05:38;;;;;;;;;;;;;;;11.02;45.11;96957.38;4217529;28;5723;-74
2023/04/03 15:07:43;;;;;;;;;;;;;;;11.01;44.80;96960.22;4209110;28;5794;-72
2023/04/03 15:09:46;;;;;;;;;;;;;;;10.99;44.95;96978.94;4216885;28;5789;-73
2023/04/03 15:11:49;;;;;;;;;;;;;;;10.96;45.20;96946.75;4216565;28;5797;-73
2023/04/03 15:13:52;;;;;;;;;;;;;;;10.91;44.78;96955.25;4209760;28;5752;-73
2023/04/03 15:15:57;;;;;;;;;;;;;;;10.88;44.91;96946.91;4217599;28;5589;-72
2023/04/03 15:18:00;;;;;;;;;;;;;;;10.86;44.52;96949.72;4211613;28;5723;-72
2023/04/03 15:20:04;;;;;;;;;;;;;;;10.87;44.69;96953.16;4216807;28;5758;-73
2023/04/03 15:22:08;;;;;;;;;;;;;;;10.90;44.86;96950.16;4217375;28;5787;-73
2023/04/03 15:24:11;;;;;;;;;;;;;;;11.00;44.56;96943.53;4216924;28;5710;-73
2023/04/03 15:26:14;;;;;;;;;;;;;;;10.98;44.47;96948.19;4215694;28;5628;-73
2023/04/03 15:28:26;;;;;;;;;;;;;;;10.97;44.74;96940.44;4216693;28;5787;-74
2023/04/03 15:30:28;;;;;;;;;;;;;;;10.98;44.29;96934.94;4214170;28;5736;-73
2023/04/03 15:32:33;;;;;;;;;;;;;;;10.98;44.76;96934.13;4210188;28;5747;-71
2023/04/03 15:34:36;;;;;;;;;;;;;;;10.97;44.10;96945.72;4214506;28;5720;-73
2023/04/03 15:36:39;;;;;;;;;;;;;;;10.90;44.11;96937.75;4212528;28;5626;-72
2023/04/03 15:38:42;;;;;;;;;;;;;;;10.93;44.35;96925.97;4216813;28;5768;-72
2023/04/03 15:40:46;;;;;;;;;;;;;;;11.04;44.46;96933.38;4211605;28;5740;-72
2023/04/03 15:42:49;;;;;;;;;;;;;;;11.15;44.34;96929.38;4212091;28;5702;-73
2023/04/03 15:44:55;;;;;;;;;;;;;;;11.13;43.87;96911.06;4219392;28;5610;-72
2023/04/03 15:46:59;;;;;;;;;;;;;;;11.02;44.20;96919.53;4212289;28;5767;-72
2023/04/03 15:49:03;;;;;;;;;;;;;;;11.00;44.21;96929.50;4211859;28;5826;-73
2023/04/03 15:51:07;;;;;;;;;;;;;;;11.00;43.91;96922.38;4210184;28;5909;-73
2023/04/03 15:53:11;;;;;;;;;;;;;;;11.04;44.18;96918.31;4216697;28;6071;-73
2023/04/03 15:55:14;;;;;;;;;;;;;;;11.03;43.73;96903.47;4212656;28;5664;-73
2023/04/03 15:57:17;;;;;;;;;;;;;;;11.02;43.61;96920.34;4213309;28;5684;-73
2023/04/03 15:59:20;;;;;;;;;;;;;;;10.94;43.75;96896.69;4215515;28;5825;-72
2023/04/03 16:01:23;;;;;;;;;;;;;;;10.89;43.89;96906.22;4206649;28;5628;-72
2023/04/03 16:03:26;;;;;;;;;;;;;;;10.91;43.87;96901.53;4216626;28;5612;-72
2023/04/03 16:05:31;;;;;;;;;;;;;;;10.88;43.50;96899.28;4216520;28;6201;-73
2023/04/03 16:07:34;;;;;;;;;;;;;;;10.90;43.67;96898.09;4216412;28;5845;-72
2023/04/03 16:09:37;;;;;;;;;;;;;;;10.89;43.69;96914.97;4215320;28;5612;-72
2023/04/03 16:11:40;;;;;;;;;;;;;;;10.88;43.51;96901.94;4204541;28;5722;-73
2023/04/03 16:13:44;;;;;;;;;;;;;;;10.83;43.28;96889.28;4207261;28;5218;-73
2023/04/03 16:15:48;;;;;;;;;;;;;;;10.82;43.49;96892.13;4215521;28;5737;-72
2023/04/03 16:17:52;;;;;;;;;;;;;;;10.79;43.34;96896.78;4208093;28;5677;-73
2023/04/03 16:19:55;;;;;;;;;;;;;;;10.78;43.13;96886.41;4209739;28;5700;-71
2023/04/03 16:22:00;;;;;;;;;;;;;;;10.79;43.23;96894.13;4215963;28;5673;-73
2023/04/03 16:24:04;;;;;;;;;;;;;;;10.76;43.32;96893.72;4214132;28;5881;-73
2023/04/03 16:26:07;;;;;;;;;;;;;;;10.78;43.44;96910.19;4210143;28;5859;-73
2023/04/03 16:28:09;;;;;;;;;;;;;;;10.78;43.44;96896.97;4210203;28;5756;-74
2023/04/03 16:30:12;;;;;;;;;;;;;;;10.81;43.12;96901.06;4209272;28;5628;-73
2023/04/03 16:32:15;;;;;;;;;;;;;;;10.81;43.17;96893.94;4210614;28;5633;-73
2023/04/03 16:34:18;;;;;;;;;;;;;;;10.78;43.36;96915.50;4215085;28;5801;-73